sensor_id;sensor_type;location;lat;lon;timestamp;P1;durP1;ratioP1;P2;durP2;ratioP2
13685;SDS011;6915;48.296;8.874;2023-03-24T00:01:26;1.63;;;1.53;;
13685;SDS011;6915;48.296;8.874;2023-03-24T00:03:57;2.37;;;1.63;;
13685;SDS011;6915;48.296;8.874;2023-03-24T00:06:25;1.77;;;1.67;;
13685;SDS011;6915;48.296;8.874;2023-03-24T00:08:58;3.13;;;1.90;;
13685;SDS011;6915;48.296;8.874;2023-03-24T00:11:28;2.10;;;1.70;;
13685;SDS011;6915;48.296;8.874;2023-03-24T00:13:59;2.50;;;1.73;;
13685;SDS011;6915;48.296;8.874;2023-03-24T00:16:28;1.80;;;1.60;;
13685;SDS011;6915;48.296;8.874;2023-03-24T00:19:00;2.23;;;1.50;;
13685;SDS011;6915;48.296;8.874;2023-03-24T00:21:29;2.50;;;1.80;;
13685;SDS011;6915;48.296;8.874;2023-03-24T00:23:58;2.13;;;1.60;;
13685;SDS011;6915;48.296;8.874;2023-03-24T00:26:28;2.03;;;1.53;;
13685;SDS011;6915;48.296;8.874;2023-03-24T00:28:57;2.20;;;2.00;;
13685;SDS011;6915;48.296;8.874;2023-03-24T00:31:27;2.57;;;1.70;;
13685;SDS011;6915;48.296;8.874;2023-03-24T00:33:56;1.80;;;1.70;;
13685;SDS011;6915;48.296;8.874;2023-03-24T00:36:28;2.27;;;1.70;;
13685;SDS011;6915;48.296;8.874;2023-03-24T00:38:57;3.40;;;1.87;;
13685;SDS011;6915;48.296;8.874;2023-03-24T00:41:26;4.20;;;1.93;;
13685;SDS011;6915;48.296;8.874;2023-03-24T00:43:56;2.47;;;1.70;;
13685;SDS011;6915;48.296;8.874;2023-03-24T00:46:27;2.20;;;1.90;;
13685;SDS011;6915;48.296;8.874;2023-03-24T00:48:58;2.37;;;1.77;;
13685;SDS011;6915;48.296;8.874;2023-03-24T00:51:32;2.30;;;2.10;;
13685;SDS011;6915;48.296;8.874;2023-03-24T00:54:02;2.60;;;1.80;;
13685;SDS011;6915;48.296;8.874;2023-03-24T00:56:33;2.10;;;1.90;;
13685;SDS011;6915;48.296;8.874;2023-03-24T00:59:04;2.37;;;1.43;;
13685;SDS011;6915;48.296;8.874;2023-03-24T01:01:34;1.83;;;1.40;;
13685;SDS011;6915;48.296;8.874;2023-03-24T01:04:05;1.93;;;1.43;;
13685;SDS011;6915;48.296;8.874;2023-03-24T01:06:37;1.67;;;1.57;;
13685;SDS011;6915;48.296;8.874;2023-03-24T01:09:06;2.13;;;1.70;;
13685;SDS011;6915;48.296;8.874;2023-03-24T01:11:37;1.80;;;1.60;;
13685;SDS011;6915;48.296;8.874;2023-03-24T01:14:06;1.60;;;1.50;;
13685;SDS011;6915;48.296;8.874;2023-03-24T01:16:35;1.53;;;1.43;;
13685;SDS011;6915;48.296;8.874;2023-03-24T01:19:05;1.60;;;1.50;;
13685;SDS011;6915;48.296;8.874;2023-03-24T01:21:34;1.73;;;1.60;;
13685;SDS011;6915;48.296;8.874;2023-03-24T01:24:06;1.63;;;1.53;;
13685;SDS011;6915;48.296;8.874;2023-03-24T01:26:37;3.37;;;1.70;;
13685;SDS011;6915;48.296;8.874;2023-03-24T01:29:06;1.60;;;1.50;;
13685;SDS011;6915;48.296;8.874;2023-03-24T01:31:35;1.70;;;1.00;;
13685;SDS011;6915;48.296;8.874;2023-03-24T01:34:04;1.40;;;1.27;;
13685;SDS011;6915;48.296;8.874;2023-03-24T01:36:33;1.87;;;1.43;;
13685;SDS011;6915;48.296;8.874;2023-03-24T01:39:03;1.63;;;1.53;;
13685;SDS011;6915;48.296;8.874;2023-03-24T01:41:33;1.33;;;1.23;;
13685;SDS011;6915;48.296;8.874;2023-03-24T01:46:50;2.13;;;1.30;;
13685;SDS011;6915;48.296;8.874;2023-03-24T01:49:19;2.10;;;1.30;;
13685;SDS011;6915;48.296;8.874;2023-03-24T01:51:50;1.40;;;1.30;;
13685;SDS011;6915;48.296;8.874;2023-03-24T01:54:25;2.17;;;1.63;;
13685;SDS011;6915;48.296;8.874;2023-03-24T01:56:56;1.70;;;1.47;;
13685;SDS011;6915;48.296;8.874;2023-03-24T01:59:29;1.67;;;1.40;;
13685;SDS011;6915;48.296;8.874;2023-03-24T02:02:02;2.00;;;1.33;;
13685;SDS011;6915;48.296;8.874;2023-03-24T02:04:33;3.63;;;1.30;;
13685;SDS011;6915;48.296;8.874;2023-03-24T02:07:07;2.50;;;1.07;;
13685;SDS011;6915;48.296;8.874;2023-03-24T02:09:40;1.80;;;1.50;;
13685;SDS011;6915;48.296;8.874;2023-03-24T02:12:10;1.50;;;1.40;;
13685;SDS011;6915;48.296;8.874;2023-03-24T02:14:40;2.87;;;1.10;;
13685;SDS011;6915;48.296;8.874;2023-03-24T02:17:15;1.77;;;1.30;;
13685;SDS011;6915;48.296;8.874;2023-03-24T02:20:21;1.70;;;1.50;;
13685;SDS011;6915;48.296;8.874;2023-03-24T02:26:43;2.30;;;1.37;;
13685;SDS011;6915;48.296;8.874;2023-03-24T02:32:29;1.47;;;1.37;;
13685;SDS011;6915;48.296;8.874;2023-03-24T02:35:24;1.70;;;1.50;;
13685;SDS011;6915;48.296;8.874;2023-03-24T02:38:27;1.50;;;1.20;;
13685;SDS011;6915;48.296;8.874;2023-03-24T02:41:09;1.77;;;1.30;;
13685;SDS011;6915;48.296;8.874;2023-03-24T02:43:46;1.33;;;1.17;;
13685;SDS011;6915;48.296;8.874;2023-03-24T02:46:24;1.57;;;1.30;;
13685;SDS011;6915;48.296;8.874;2023-03-24T02:49:02;1.57;;;1.27;;
13685;SDS011;6915;48.296;8.874;2023-03-24T02:51:36;1.70;;;1.50;;
13685;SDS011;6915;48.296;8.874;2023-03-24T02:54:13;1.50;;;1.37;;
13685;SDS011;6915;48.296;8.874;2023-03-24T02:56:48;1.30;;;1.20;;
13685;SDS011;6915;48.296;8.874;2023-03-24T02:59:25;1.40;;;1.30;;
13685;SDS011;6915;48.296;8.874;2023-03-24T03:01:57;1.40;;;1.30;;
13685;SDS011;6915;48.296;8.874;2023-03-24T03:04:28;1.60;;;1.50;;
13685;SDS011;6915;48.296;8.874;2023-03-24T03:07:00;2.87;;;1.60;;
13685;SDS011;6915;48.296;8.874;2023-03-24T03:09:34;1.87;;;1.50;;
13685;SDS011;6915;48.296;8.874;2023-03-24T03:12:08;1.40;;;1.30;;
13685;SDS011;6915;48.296;8.874;2023-03-24T03:14:40;3.07;;;1.63;;
13685;SDS011;6915;48.296;8.874;2023-03-24T03:17:11;2.10;;;1.33;;
13685;SDS011;6915;48.296;8.874;2023-03-24T03:19:45;1.50;;;1.40;;
13685;SDS011;6915;48.296;8.874;2023-03-24T03:22:18;1.43;;;1.20;;
13685;SDS011;6915;48.296;8.874;2023-03-24T03:24:50;1.40;;;1.30;;
13685;SDS011;6915;48.296;8.874;2023-03-24T03:27:24;1.40;;;1.30;;
13685;SDS011;6915;48.296;8.874;2023-03-24T03:30:04;1.63;;;1.10;;
13685;SDS011;6915;48.296;8.874;2023-03-24T03:32:34;1.20;;;1.10;;
13685;SDS011;6915;48.296;8.874;2023-03-24T03:35:11;2.17;;;1.30;;
13685;SDS011;6915;48.296;8.874;2023-03-24T03:37:49;3.97;;;1.43;;
13685;SDS011;6915;48.296;8.874;2023-03-24T03:40:24;1.10;;;1.00;;
13685;SDS011;6915;48.296;8.874;2023-03-24T03:42:57;1.50;;;1.40;;
13685;SDS011;6915;48.296;8.874;2023-03-24T03:45:27;1.33;;;1.17;;
13685;SDS011;6915;48.296;8.874;2023-03-24T03:47:56;1.10;;;1.10;;
13685;SDS011;6915;48.296;8.874;2023-03-24T03:50:25;1.20;;;1.10;;
13685;SDS011;6915;48.296;8.874;2023-03-24T03:52:54;1.10;;;1.00;;
13685;SDS011;6915;48.296;8.874;2023-03-24T03:55:25;1.00;;;0.83;;
13685;SDS011;6915;48.296;8.874;2023-03-24T03:57:55;2.00;;;1.20;;
13685;SDS011;6915;48.296;8.874;2023-03-24T04:00:25;2.80;;;1.00;;
13685;SDS011;6915;48.296;8.874;2023-03-24T04:02:59;3.10;;;1.30;;
13685;SDS011;6915;48.296;8.874;2023-03-24T04:05:41;1.30;;;1.20;;
13685;SDS011;6915;48.296;8.874;2023-03-24T04:08:16;1.67;;;1.20;;
13685;SDS011;6915;48.296;8.874;2023-03-24T04:13:47;1.47;;;1.30;;
13685;SDS011;6915;48.296;8.874;2023-03-24T04:16:24;1.20;;;1.10;;
13685;SDS011;6915;48.296;8.874;2023-03-24T04:21:52;0.90;;;0.90;;
13685;SDS011;6915;48.296;8.874;2023-03-24T04:24:33;1.37;;;0.83;;
13685;SDS011;6915;48.296;8.874;2023-03-24T04:27:09;1.50;;;1.00;;
13685;SDS011;6915;48.296;8.874;2023-03-24T04:29:52;1.20;;;1.03;;
13685;SDS011;6915;48.296;8.874;2023-03-24T04:32:29;1.80;;;0.90;;
13685;SDS011;6915;48.296;8.874;2023-03-24T04:35:01;0.80;;;0.80;;
13685;SDS011;6915;48.296;8.874;2023-03-24T04:37:33;1.00;;;1.00;;
13685;SDS011;6915;48.296;8.874;2023-03-24T04:40:07;2.30;;;1.10;;
13685;SDS011;6915;48.296;8.874;2023-03-24T04:42:40;0.80;;;0.80;;
13685;SDS011;6915;48.296;8.874;2023-03-24T04:45:12;1.60;;;1.10;;
13685;SDS011;6915;48.296;8.874;2023-03-24T04:47:45;1.43;;;1.20;;
13685;SDS011;6915;48.296;8.874;2023-03-24T04:50:25;1.10;;;1.00;;
13685;SDS011;6915;48.296;8.874;2023-03-24T04:52:56;1.83;;;0.90;;
13685;SDS011;6915;48.296;8.874;2023-03-24T04:55:34;1.40;;;1.30;;
13685;SDS011;6915;48.296;8.874;2023-03-24T04:58:12;1.77;;;1.10;;
13685;SDS011;6915;48.296;8.874;2023-03-24T05:00:42;1.80;;;1.00;;
13685;SDS011;6915;48.296;8.874;2023-03-24T05:03:12;2.37;;;1.10;;
13685;SDS011;6915;48.296;8.874;2023-03-24T05:05:43;1.40;;;1.30;;
13685;SDS011;6915;48.296;8.874;2023-03-24T05:08:15;1.57;;;1.00;;
13685;SDS011;6915;48.296;8.874;2023-03-24T05:10:44;4.00;;;1.20;;
13685;SDS011;6915;48.296;8.874;2023-03-24T05:13:13;2.90;;;1.20;;
13685;SDS011;6915;48.296;8.874;2023-03-24T05:15:42;2.03;;;1.40;;
13685;SDS011;6915;48.296;8.874;2023-03-24T05:18:13;2.93;;;1.50;;
13685;SDS011;6915;48.296;8.874;2023-03-24T05:20:42;4.30;;;1.70;;
13685;SDS011;6915;48.296;8.874;2023-03-24T05:23:11;2.50;;;1.53;;
13685;SDS011;6915;48.296;8.874;2023-03-24T05:25:39;2.03;;;1.63;;
13685;SDS011;6915;48.296;8.874;2023-03-24T05:28:08;2.00;;;1.50;;
13685;SDS011;6915;48.296;8.874;2023-03-24T05:30:37;1.87;;;1.73;;
13685;SDS011;6915;48.296;8.874;2023-03-24T05:33:05;1.60;;;1.50;;
13685;SDS011;6915;48.296;8.874;2023-03-24T05:35:35;2.00;;;1.80;;
13685;SDS011;6915;48.296;8.874;2023-03-24T05:38:04;3.13;;;1.80;;
13685;SDS011;6915;48.296;8.874;2023-03-24T05:40:33;3.10;;;1.70;;
13685;SDS011;6915;48.296;8.874;2023-03-24T05:43:01;2.47;;;1.67;;
13685;SDS011;6915;48.296;8.874;2023-03-24T05:45:32;3.40;;;2.00;;
13685;SDS011;6915;48.296;8.874;2023-03-24T05:48:00;2.73;;;2.07;;
13685;SDS011;6915;48.296;8.874;2023-03-24T05:50:29;2.17;;;1.97;;
13685;SDS011;6915;48.296;8.874;2023-03-24T05:52:59;2.60;;;2.10;;
13685;SDS011;6915;48.296;8.874;2023-03-24T05:55:28;3.83;;;2.33;;
13685;SDS011;6915;48.296;8.874;2023-03-24T05:57:57;2.33;;;2.17;;
13685;SDS011;6915;48.296;8.874;2023-03-24T06:00:27;2.80;;;2.40;;
13685;SDS011;6915;48.296;8.874;2023-03-24T06:02:57;2.63;;;2.27;;
13685;SDS011;6915;48.296;8.874;2023-03-24T06:05:26;2.60;;;2.40;;
13685;SDS011;6915;48.296;8.874;2023-03-24T06:07:55;2.83;;;2.17;;
13685;SDS011;6915;48.296;8.874;2023-03-24T06:10:26;3.93;;;2.60;;
13685;SDS011;6915;48.296;8.874;2023-03-24T06:12:55;4.57;;;2.33;;
13685;SDS011;6915;48.296;8.874;2023-03-24T06:15:24;3.83;;;2.33;;
13685;SDS011;6915;48.296;8.874;2023-03-24T06:17:54;2.70;;;2.50;;
13685;SDS011;6915;48.296;8.874;2023-03-24T06:20:25;2.57;;;2.07;;
13685;SDS011;6915;48.296;8.874;2023-03-24T06:22:53;2.93;;;2.60;;
13685;SDS011;6915;48.296;8.874;2023-03-24T06:25:23;3.00;;;2.70;;
13685;SDS011;6915;48.296;8.874;2023-03-24T06:27:55;4.17;;;2.40;;
13685;SDS011;6915;48.296;8.874;2023-03-24T06:30:28;3.17;;;2.70;;
13685;SDS011;6915;48.296;8.874;2023-03-24T06:32:56;3.40;;;2.53;;
13685;SDS011;6915;48.296;8.874;2023-03-24T06:35:25;2.67;;;2.47;;
13685;SDS011;6915;48.296;8.874;2023-03-24T06:37:54;4.23;;;2.67;;
13685;SDS011;6915;48.296;8.874;2023-03-24T06:40:23;2.90;;;2.67;;
13685;SDS011;6915;48.296;8.874;2023-03-24T06:42:51;3.20;;;2.50;;
13685;SDS011;6915;48.296;8.874;2023-03-24T06:45:22;4.67;;;2.57;;
13685;SDS011;6915;48.296;8.874;2023-03-24T06:47:51;2.80;;;2.40;;
13685;SDS011;6915;48.296;8.874;2023-03-24T06:50:21;2.50;;;2.30;;
13685;SDS011;6915;48.296;8.874;2023-03-24T06:52:51;3.60;;;2.50;;
13685;SDS011;6915;48.296;8.874;2023-03-24T06:55:19;3.40;;;2.30;;
13685;SDS011;6915;48.296;8.874;2023-03-24T06:57:48;2.40;;;2.20;;
13685;SDS011;6915;48.296;8.874;2023-03-24T07:00:17;3.27;;;2.47;;
13685;SDS011;6915;48.296;8.874;2023-03-24T07:02:48;4.33;;;2.57;;
13685;SDS011;6915;48.296;8.874;2023-03-24T07:05:17;2.77;;;2.27;;
13685;SDS011;6915;48.296;8.874;2023-03-24T07:07:46;2.67;;;2.30;;
13685;SDS011;6915;48.296;8.874;2023-03-24T07:10:15;2.50;;;2.30;;
13685;SDS011;6915;48.296;8.874;2023-03-24T07:12:45;3.73;;;2.57;;
13685;SDS011;6915;48.296;8.874;2023-03-24T07:15:14;4.60;;;3.00;;
13685;SDS011;6915;48.296;8.874;2023-03-24T07:17:43;3.10;;;2.80;;
13685;SDS011;6915;48.296;8.874;2023-03-24T07:20:13;3.53;;;2.90;;
13685;SDS011;6915;48.296;8.874;2023-03-24T07:22:44;4.20;;;2.83;;
13685;SDS011;6915;48.296;8.874;2023-03-24T07:25:15;4.33;;;2.70;;
13685;SDS011;6915;48.296;8.874;2023-03-24T07:27:45;5.17;;;2.67;;
13685;SDS011;6915;48.296;8.874;2023-03-24T07:30:14;4.17;;;2.90;;
13685;SDS011;6915;48.296;8.874;2023-03-24T07:32:44;3.57;;;2.57;;
13685;SDS011;6915;48.296;8.874;2023-03-24T07:35:15;3.63;;;2.87;;
13685;SDS011;6915;48.296;8.874;2023-03-24T07:37:45;3.43;;;2.80;;
13685;SDS011;6915;48.296;8.874;2023-03-24T07:40:14;2.97;;;2.60;;
13685;SDS011;6915;48.296;8.874;2023-03-24T07:42:43;4.80;;;2.87;;
13685;SDS011;6915;48.296;8.874;2023-03-24T07:45:12;3.07;;;2.60;;
13685;SDS011;6915;48.296;8.874;2023-03-24T07:47:41;3.33;;;2.80;;
13685;SDS011;6915;48.296;8.874;2023-03-24T07:50:11;2.83;;;2.60;;
13685;SDS011;6915;48.296;8.874;2023-03-24T07:52:44;3.60;;;2.53;;
13685;SDS011;6915;48.296;8.874;2023-03-24T07:55:15;2.77;;;2.53;;
13685;SDS011;6915;48.296;8.874;2023-03-24T07:57:44;4.70;;;2.40;;
13685;SDS011;6915;48.296;8.874;2023-03-24T08:00:15;2.97;;;2.30;;
13685;SDS011;6915;48.296;8.874;2023-03-24T08:02:46;3.40;;;2.70;;
13685;SDS011;6915;48.296;8.874;2023-03-24T08:05:16;3.10;;;2.60;;
13685;SDS011;6915;48.296;8.874;2023-03-24T08:07:49;2.47;;;2.27;;
13685;SDS011;6915;48.296;8.874;2023-03-24T08:10:20;2.63;;;2.37;;
13685;SDS011;6915;48.296;8.874;2023-03-24T08:12:51;2.83;;;2.60;;
13685;SDS011;6915;48.296;8.874;2023-03-24T08:15:20;2.83;;;2.63;;
13685;SDS011;6915;48.296;8.874;2023-03-24T08:17:49;5.43;;;2.70;;
13685;SDS011;6915;48.296;8.874;2023-03-24T08:20:20;2.77;;;2.57;;
13685;SDS011;6915;48.296;8.874;2023-03-24T08:22:52;3.17;;;2.40;;
13685;SDS011;6915;48.296;8.874;2023-03-24T08:25:22;3.20;;;2.57;;
13685;SDS011;6915;48.296;8.874;2023-03-24T08:27:51;2.93;;;2.50;;
13685;SDS011;6915;48.296;8.874;2023-03-24T08:30:21;2.70;;;2.50;;
13685;SDS011;6915;48.296;8.874;2023-03-24T08:32:52;3.40;;;2.90;;
13685;SDS011;6915;48.296;8.874;2023-03-24T08:35:24;2.93;;;2.57;;
13685;SDS011;6915;48.296;8.874;2023-03-24T08:38:00;2.70;;;2.50;;
13685;SDS011;6915;48.296;8.874;2023-03-24T08:40:27;2.47;;;2.27;;
13685;SDS011;6915;48.296;8.874;2023-03-24T08:43:00;2.73;;;1.73;;
13685;SDS011;6915;48.296;8.874;2023-03-24T08:45:32;2.10;;;2.00;;
13685;SDS011;6915;48.296;8.874;2023-03-24T08:48:05;1.50;;;1.40;;
13685;SDS011;6915;48.296;8.874;2023-03-24T08:50:36;2.63;;;1.73;;
13685;SDS011;6915;48.296;8.874;2023-03-24T08:53:08;1.60;;;1.50;;
13685;SDS011;6915;48.296;8.874;2023-03-24T08:55:38;2.70;;;1.50;;
13685;SDS011;6915;48.296;8.874;2023-03-24T08:58:08;1.40;;;1.30;;
13685;SDS011;6915;48.296;8.874;2023-03-24T09:00:41;1.13;;;1.03;;
13685;SDS011;6915;48.296;8.874;2023-03-24T09:03:11;1.30;;;1.20;;
13685;SDS011;6915;48.296;8.874;2023-03-24T09:05:42;1.37;;;1.00;;
13685;SDS011;6915;48.296;8.874;2023-03-24T09:08:14;1.40;;;0.93;;
13685;SDS011;6915;48.296;8.874;2023-03-24T09:10:44;0.70;;;0.70;;
13685;SDS011;6915;48.296;8.874;2023-03-24T09:13:13;1.17;;;1.07;;
13685;SDS011;6915;48.296;8.874;2023-03-24T09:15:44;2.13;;;1.03;;
13685;SDS011;6915;48.296;8.874;2023-03-24T09:18:15;1.77;;;1.20;;
13685;SDS011;6915;48.296;8.874;2023-03-24T09:20:45;3.13;;;1.00;;
13685;SDS011;6915;48.296;8.874;2023-03-24T09:23:15;0.80;;;0.80;;
13685;SDS011;6915;48.296;8.874;2023-03-24T09:25:46;0.90;;;0.90;;
13685;SDS011;6915;48.296;8.874;2023-03-24T09:28:17;0.80;;;0.80;;
13685;SDS011;6915;48.296;8.874;2023-03-24T09:30:46;0.97;;;0.87;;
13685;SDS011;6915;48.296;8.874;2023-03-24T09:33:15;0.63;;;0.63;;
13685;SDS011;6915;48.296;8.874;2023-03-24T09:35:44;1.10;;;0.77;;
13685;SDS011;6915;48.296;8.874;2023-03-24T09:38:19;1.70;;;0.80;;
13685;SDS011;6915;48.296;8.874;2023-03-24T09:40:49;1.03;;;0.60;;
13685;SDS011;6915;48.296;8.874;2023-03-24T09:43:23;0.97;;;0.90;;
13685;SDS011;6915;48.296;8.874;2023-03-24T09:45:54;0.63;;;0.63;;
13685;SDS011;6915;48.296;8.874;2023-03-24T09:48:27;1.37;;;0.60;;
13685;SDS011;6915;48.296;8.874;2023-03-24T09:51:02;0.90;;;0.80;;
13685;SDS011;6915;48.296;8.874;2023-03-24T09:53:37;1.13;;;0.90;;
13685;SDS011;6915;48.296;8.874;2023-03-24T09:56:11;1.60;;;0.77;;
13685;SDS011;6915;48.296;8.874;2023-03-24T09:58:42;1.40;;;1.00;;
13685;SDS011;6915;48.296;8.874;2023-03-24T10:01:15;2.33;;;0.87;;
13685;SDS011;6915;48.296;8.874;2023-03-24T10:03:45;0.97;;;0.87;;
13685;SDS011;6915;48.296;8.874;2023-03-24T10:06:15;1.20;;;1.10;;
13685;SDS011;6915;48.296;8.874;2023-03-24T10:08:50;1.40;;;0.90;;
13685;SDS011;6915;48.296;8.874;2023-03-24T10:11:30;1.07;;;0.90;;
13685;SDS011;6915;48.296;8.874;2023-03-24T10:14:11;1.37;;;1.27;;
13685;SDS011;6915;48.296;8.874;2023-03-24T10:16:48;1.93;;;1.07;;
13685;SDS011;6915;48.296;8.874;2023-03-24T10:19:22;1.20;;;1.10;;
13685;SDS011;6915;48.296;8.874;2023-03-24T10:22:02;1.20;;;1.00;;
13685;SDS011;6915;48.296;8.874;2023-03-24T10:24:40;1.20;;;1.10;;
13685;SDS011;6915;48.296;8.874;2023-03-24T10:27:13;1.10;;;1.00;;
13685;SDS011;6915;48.296;8.874;2023-03-24T10:29:47;1.93;;;1.23;;
13685;SDS011;6915;48.296;8.874;2023-03-24T10:32:18;1.57;;;0.90;;
13685;SDS011;6915;48.296;8.874;2023-03-24T10:34:51;1.07;;;0.93;;
13685;SDS011;6915;48.296;8.874;2023-03-24T10:37:31;1.20;;;0.93;;
13685;SDS011;6915;48.296;8.874;2023-03-24T10:40:06;0.90;;;0.90;;
13685;SDS011;6915;48.296;8.874;2023-03-24T10:42:42;1.63;;;1.10;;
13685;SDS011;6915;48.296;8.874;2023-03-24T10:45:17;0.80;;;0.80;;
13685;SDS011;6915;48.296;8.874;2023-03-24T10:47:51;0.70;;;0.70;;
13685;SDS011;6915;48.296;8.874;2023-03-24T10:50:23;0.70;;;0.70;;
13685;SDS011;6915;48.296;8.874;2023-03-24T10:52:53;0.77;;;0.67;;
13685;SDS011;6915;48.296;8.874;2023-03-24T10:55:28;0.63;;;0.60;;
13685;SDS011;6915;48.296;8.874;2023-03-24T10:58:03;0.83;;;0.80;;
13685;SDS011;6915;48.296;8.874;2023-03-24T11:00:42;0.70;;;0.70;;
13685;SDS011;6915;48.296;8.874;2023-03-24T11:03:13;0.60;;;0.60;;
13685;SDS011;6915;48.296;8.874;2023-03-24T11:05:48;0.87;;;0.67;;
13685;SDS011;6915;48.296;8.874;2023-03-24T11:08:24;0.83;;;0.80;;
13685;SDS011;6915;48.296;8.874;2023-03-24T11:10:59;1.03;;;0.80;;
13685;SDS011;6915;48.296;8.874;2023-03-24T11:16:14;0.60;;;0.60;;
13685;SDS011;6915;48.296;8.874;2023-03-24T11:26:47;0.50;;;0.50;;
13685;SDS011;6915;48.296;8.874;2023-03-24T11:29:20;0.60;;;0.60;;
13685;SDS011;6915;48.296;8.874;2023-03-24T11:31:52;0.47;;;0.43;;
13685;SDS011;6915;48.296;8.874;2023-03-24T11:34:23;0.87;;;0.57;;
13685;SDS011;6915;48.296;8.874;2023-03-24T11:36:58;0.60;;;0.50;;
13685;SDS011;6915;48.296;8.874;2023-03-24T11:39:30;0.60;;;0.60;;
13685;SDS011;6915;48.296;8.874;2023-03-24T11:42:11;1.43;;;0.67;;
13685;SDS011;6915;48.296;8.874;2023-03-24T11:44:42;0.40;;;0.40;;
13685;SDS011;6915;48.296;8.874;2023-03-24T11:47:12;0.50;;;0.50;;
13685;SDS011;6915;48.296;8.874;2023-03-24T11:49:49;0.87;;;0.70;;
13685;SDS011;6915;48.296;8.874;2023-03-24T11:52:22;0.63;;;0.63;;
13685;SDS011;6915;48.296;8.874;2023-03-24T11:54:54;0.70;;;0.63;;
13685;SDS011;6915;48.296;8.874;2023-03-24T11:57:30;1.07;;;0.80;;
13685;SDS011;6915;48.296;8.874;2023-03-24T12:00:12;0.90;;;0.70;;
13685;SDS011;6915;48.296;8.874;2023-03-24T12:02:49;0.80;;;0.80;;
13685;SDS011;6915;48.296;8.874;2023-03-24T12:05:49;0.83;;;0.60;;
13685;SDS011;6915;48.296;8.874;2023-03-24T12:08:29;0.60;;;0.60;;
13685;SDS011;6915;48.296;8.874;2023-03-24T12:11:07;0.40;;;0.40;;
13685;SDS011;6915;48.296;8.874;2023-03-24T12:13:44;0.70;;;0.43;;
13685;SDS011;6915;48.296;8.874;2023-03-24T12:16:27;0.50;;;0.50;;
13685;SDS011;6915;48.296;8.874;2023-03-24T12:42:36;0.20;;;0.20;;
13685;SDS011;6915;48.296;8.874;2023-03-24T12:48:20;0.20;;;0.20;;
13685;SDS011;6915;48.296;8.874;2023-03-24T12:51:06;0.67;;;0.20;;
13685;SDS011;6915;48.296;8.874;2023-03-24T12:53:50;0.10;;;0.10;;
13685;SDS011;6915;48.296;8.874;2023-03-24T12:56:26;0.20;;;0.10;;
13685;SDS011;6915;48.296;8.874;2023-03-24T12:59:00;0.20;;;0.20;;
13685;SDS011;6915;48.296;8.874;2023-03-24T13:04:08;0.20;;;0.20;;
13685;SDS011;6915;48.296;8.874;2023-03-24T13:06:43;0.40;;;0.20;;
13685;SDS011;6915;48.296;8.874;2023-03-24T13:09:20;0.23;;;0.10;;
13685;SDS011;6915;48.296;8.874;2023-03-24T13:12:06;0.10;;;0.10;;
13685;SDS011;6915;48.296;8.874;2023-03-24T13:30:24;0.20;;;0.20;;
13685;SDS011;6915;48.296;8.874;2023-03-24T13:51:24;0.37;;;0.20;;
13685;SDS011;6915;48.296;8.874;2023-03-24T13:53:58;1.60;;;0.30;;
13685;SDS011;6915;48.296;8.874;2023-03-24T13:56:31;0.70;;;0.30;;
13685;SDS011;6915;48.296;8.874;2023-03-24T13:59:06;0.30;;;0.30;;
13685;SDS011;6915;48.296;8.874;2023-03-24T14:01:44;1.90;;;0.37;;
13685;SDS011;6915;48.296;8.874;2023-03-24T14:07:35;0.53;;;0.20;;
13685;SDS011;6915;48.296;8.874;2023-03-24T14:10:29;0.93;;;0.30;;
13685;SDS011;6915;48.296;8.874;2023-03-24T14:13:21;0.37;;;0.30;;
13685;SDS011;6915;48.296;8.874;2023-03-24T14:16:00;0.30;;;0.30;;
13685;SDS011;6915;48.296;8.874;2023-03-24T14:19:16;0.40;;;0.20;;
13685;SDS011;6915;48.296;8.874;2023-03-24T14:24:23;1.23;;;0.50;;
13685;SDS011;6915;48.296;8.874;2023-03-24T14:29:51;0.30;;;0.20;;
13685;SDS011;6915;48.296;8.874;2023-03-24T14:32:26;0.87;;;0.30;;
